Time;durP1;ratioP1;P1;durP2;ratioP2;P2;SDS_P1;SDS_P2;PMS_P1;PMS_P2;Temp;Humidity;BMP_temperature;BMP_pressure;BME280_temperature;BME280_humidity;BME280_pressure;Samples;Min_cycle;Max_cycle;Signal;HPM_P1;HPM_P2
2023/10/26 05:30:05;;;;;;;1.60;0.97;;;20.90;77.40;;;;;;4970753;22;20500;-95
2023/10/26 05:39:18;;;;;;;1.47;0.90;;;20.90;77.60;;;;;;5010751;28;20453;-85
2023/10/26 05:41:45;;;;;;;1.10;0.90;;;20.90;77.50;;;;;;5017155;28;20454;-92
2023/10/26 05:44:11;;;;;;;1.60;1.20;;;20.90;77.50;;;;;;5017280;28;20446;-91
2023/10/26 05:46:38;;;;;;;1.40;1.30;;;20.90;77.30;;;;;;5017350;28;20519;-90
2023/10/26 19:14:38;;;;;;;3.77;2.30;;;21.10;77.80;;;;;;5057971;23;20600;-90
2023/10/26 19:17:05;;;;;;;3.60;2.70;;;21.10;77.70;;;;;;5035059;28;20442;-90
2023/10/26 19:19:32;;;;;;;2.80;2.60;;;21.10;77.90;;;;;;5034793;28;20487;-87
2023/10/26 19:21:59;;;;;;;3.47;3.17;;;21.10;77.80;;;;;;5034726;28;20477;-87
2023/10/26 19:24:26;;;;;;;2.90;2.70;;;21.10;77.80;;;;;;5030321;28;20478;-88
2023/10/26 19:26:52;;;;;;;4.07;3.10;;;21.20;77.90;;;;;;5014744;28;20439;-88
2023/10/26 19:29:19;;;;;;;5.37;2.47;;;21.10;77.90;;;;;;5021748;28;20856;-89
2023/10/26 19:31:48;;;;;;;3.00;2.80;;;21.10;77.80;;;;;;5023840;28;20483;-89
2023/10/26 19:34:14;;;;;;;3.63;2.47;;;21.10;77.90;;;;;;5014787;28;20447;-89
2023/10/26 19:36:41;;;;;;;3.27;2.70;;;21.10;77.90;;;;;;5014794;28;20534;-90
2023/10/26 19:39:08;;;;;;;2.90;2.60;;;21.20;78.00;;;;;;5013405;28;20454;-90
2023/10/26 19:41:35;;;;;;;3.50;2.77;;;21.20;78.10;;;;;;5019119;28;20453;-89
2023/10/26 19:44:03;;;;;;;2.63;2.43;;;21.10;78.00;;;;;;5022919;28;20450;-90
2023/10/26 19:46:32;;;;;;;2.93;2.70;;;21.10;78.00;;;;;;5028984;28;20870;-89
2023/10/26 19:49:00;;;;;;;4.13;3.70;;;21.20;78.00;;;;;;5024211;28;20942;-90
2023/10/26 19:51:27;;;;;;;5.60;3.50;;;21.20;78.10;;;;;;5027281;28;20450;-92
2023/10/26 19:53:53;;;;;;;2.87;2.67;;;21.20;78.20;;;;;;5012438;28;21116;-89
2023/10/26 19:56:21;;;;;;;3.60;2.33;;;21.20;78.90;;;;;;5014461;28;20446;-89
2023/10/26 19:58:48;;;;;;;3.20;2.90;;;21.20;78.20;;;;;;5014404;28;20451;-89
2023/10/26 20:01:15;;;;;;;2.70;2.50;;;21.20;78.30;;;;;;5016521;28;20520;-90
2023/10/26 20:03:41;;;;;;;3.87;3.57;;;21.20;78.30;;;;;;5014523;28;20453;-89
2023/10/26 20:06:10;;;;;;;5.43;3.37;;;21.20;78.20;;;;;;5014358;28;20439;-90
2023/10/26 20:08:37;;;;;;;3.20;2.90;;;21.20;78.20;;;;;;5014338;28;20439;-90
2023/10/26 20:11:05;;;;;;;4.80;2.63;;;21.20;78.20;;;;;;5014017;28;20471;-90
2023/10/26 20:13:32;;;;;;;2.60;2.40;;;21.20;78.10;;;;;;5008154;28;20473;-90
2023/10/26 20:15:58;;;;;;;3.37;3.10;;;21.20;78.20;;;;;;5033917;28;20430;-90
2023/10/26 20:18:25;;;;;;;2.80;2.53;;;21.20;78.20;;;;;;5034007;28;20441;-90
2023/10/26 20:20:52;;;;;;;3.20;2.90;;;21.20;78.20;;;;;;5033733;28;20497;-92
2023/10/26 20:23:20;;;;;;;3.20;2.63;;;21.20;78.20;;;;;;5033667;28;20462;-91
2023/10/26 20:25:47;;;;;;;3.00;2.70;;;21.20;78.20;;;;;;5033699;28;20468;-89
2023/10/26 20:28:15;;;;;;;3.50;2.33;;;21.20;78.30;;;;;;5033582;28;20955;-91
2023/10/26 20:30:43;;;;;;;2.97;2.67;;;21.20;78.30;;;;;;5031855;28;20469;-90
2023/10/26 20:33:09;;;;;;;2.93;2.67;;;21.20;78.40;;;;;;5033669;28;20438;-90
2023/10/26 20:35:36;;;;;;;4.83;2.77;;;21.20;78.30;;;;;;5033501;28;20500;-89
2023/10/26 20:38:03;;;;;;;3.57;3.10;;;21.20;78.30;;;;;;5033476;28;20430;-87
2023/10/26 20:40:31;;;;;;;2.57;2.37;;;21.20;78.30;;;;;;5033199;28;20580;-90
2023/10/26 20:43:00;;;;;;;3.23;2.33;;;21.20;78.50;;;;;;5033267;28;20859;-90
2023/10/26 20:45:27;;;;;;;2.57;2.37;;;21.20;78.40;;;;;;5033458;28;20452;-87
2023/10/26 20:47:54;;;;;;;3.07;2.73;;;21.20;78.50;;;;;;5033270;28;20533;-90
2023/10/26 20:50:21;;;;;;;2.97;2.50;;;21.20;78.50;;;;;;5033370;28;20442;-90
2023/10/26 20:52:48;;;;;;;3.47;3.17;;;21.10;78.40;;;;;;5033174;28;20453;-93
2023/10/26 20:55:15;;;;;;;3.50;3.10;;;21.20;78.50;;;;;;5033345;28;20484;-94
2023/10/26 20:57:43;;;;;;;6.20;2.70;;;21.20;78.50;;;;;;5033926;28;20461;-94
2023/10/26 21:00:12;;;;;;;3.40;2.87;;;21.20;78.40;;;;;;5033556;28;20496;-92
2023/10/26 21:02:41;;;;;;;3.87;2.97;;;21.20;78.40;;;;;;5032964;28;20926;-94
2023/10/26 21:05:08;;;;;;;4.43;2.67;;;21.20;78.40;;;;;;5033175;28;20454;-94
2023/10/26 21:07:35;;;;;;;4.00;2.70;;;21.20;78.20;;;;;;5033342;28;20446;-93
2023/10/26 21:10:02;;;;;;;2.73;2.37;;;21.20;78.30;;;;;;5033451;28;20829;-92
2023/10/26 21:12:29;;;;;;;2.63;2.43;;;21.20;78.30;;;;;;5033398;28;20442;-90
2023/10/26 21:14:57;;;;;;;3.63;2.77;;;21.20;78.30;;;;;;5033104;28;20553;-93
2023/10/26 21:17:24;;;;;;;2.63;2.43;;;21.10;78.20;;;;;;5033220;28;20928;-93
2023/10/26 21:19:51;;;;;;;3.30;3.00;;;21.20;78.30;;;;;;5033306;28;20445;-93
2023/10/26 21:22:18;;;;;;;3.10;2.80;;;21.20;78.30;;;;;;5033101;28;20999;-93
2023/10/26 21:24:46;;;;;;;2.77;2.57;;;21.20;78.20;;;;;;5033389;28;20454;-96
2023/10/26 21:27:13;;;;;;;2.50;2.30;;;21.20;78.20;;;;;;5033743;28;20444;-92
2023/10/26 21:29:40;;;;;;;4.17;2.83;;;21.10;78.10;;;;;;5033135;28;20865;-91
2023/10/26 21:32:08;;;;;;;4.53;2.90;;;21.10;78.10;;;;;;5033225;28;20438;-91
2023/10/26 21:34:35;;;;;;;4.43;2.13;;;21.20;78.20;;;;;;5033246;28;20504;-93
2023/10/26 21:37:02;;;;;;;2.60;2.43;;;21.20;78.10;;;;;;5032847;28;20528;-93
2023/10/26 21:39:31;;;;;;;2.33;2.23;;;21.20;78.20;;;;;;5032778;28;20465;-94
2023/10/26 21:41:58;;;;;;;3.07;2.87;;;21.20;78.30;;;;;;5033178;28;20585;-94
2023/10/26 21:44:24;;;;;;;2.87;2.67;;;21.20;78.20;;;;;;5033277;28;20448;-94
2023/10/26 21:46:51;;;;;;;2.60;2.40;;;21.20;78.10;;;;;;5033054;28;20444;-94
2023/10/26 21:49:20;;;;;;;2.73;2.47;;;21.20;78.10;;;;;;5033169;28;20798;-91
2023/10/26 21:51:47;;;;;;;3.20;3.00;;;21.20;78.10;;;;;;5033287;28;20450;-94
2023/10/26 21:54:14;;;;;;;3.10;2.80;;;21.20;78.10;;;;;;5032839;28;20493;-92
2023/10/26 21:56:40;;;;;;;2.80;2.60;;;21.10;78.00;;;;;;5033157;28;20467;-92
2023/10/26 21:59:08;;;;;;;3.00;2.57;;;21.10;78.00;;;;;;5033209;28;20532;-93
2023/10/26 22:01:35;;;;;;;2.60;2.40;;;21.10;78.00;;;;;;5032831;28;20490;-92
2023/10/26 22:04:03;;;;;;;2.53;2.33;;;21.20;78.10;;;;;;5033166;28;20448;-92
2023/10/26 22:06:32;;;;;;;2.97;2.67;;;21.10;78.00;;;;;;5033073;28;20499;-92
2023/10/26 22:08:59;;;;;;;3.03;2.63;;;21.10;78.00;;;;;;5033070;28;20450;-94
2023/10/26 22:11:26;;;;;;;3.80;2.90;;;21.10;78.00;;;;;;5033292;28;20445;-92
2023/10/26 22:13:52;;;;;;;2.50;2.23;;;21.20;78.10;;;;;;5033855;28;20987;-92
2023/10/26 22:16:19;;;;;;;4.40;2.43;;;21.20;78.00;;;;;;5036675;28;20450;-92
2023/10/26 22:18:46;;;;;;;2.57;2.37;;;21.10;77.90;;;;;;5036504;28;20444;-92
2023/10/26 22:21:14;;;;;;;2.90;2.60;;;21.10;78.00;;;;;;5036127;28;20573;-92
2023/10/26 22:23:42;;;;;;;3.20;2.90;;;21.10;78.00;;;;;;5036318;28;20466;-94
2023/10/26 22:26:09;;;;;;;4.33;2.70;;;21.00;77.80;;;;;;5036105;28;20529;-92
2023/10/26 22:28:36;;;;;;;2.97;2.77;;;21.10;78.00;;;;;;5036330;28;20455;-92
2023/10/26 22:31:03;;;;;;;2.67;2.47;;;21.00;77.80;;;;;;5036261;28;20456;-90
2023/10/26 22:33:36;;;;;;;2.73;2.50;;;21.00;77.80;;;;;;5035995;28;20453;-92
2023/10/26 22:36:03;;;;;;;3.13;2.93;;;21.00;77.80;;;;;;5035945;28;20913;-92
2023/10/26 22:38:30;;;;;;;2.90;2.63;;;21.00;77.80;;;;;;5036158;28;20456;-91
2023/10/26 22:40:59;;;;;;;3.60;3.30;;;21.00;77.80;;;;;;5036012;28;20492;-93
2023/10/26 22:43:26;;;;;;;2.77;2.53;;;21.00;77.80;;;;;;5035890;28;20873;-93
2023/10/26 22:45:53;;;;;;;2.80;2.60;;;21.00;77.80;;;;;;5036186;28;20455;-93
2023/10/26 22:48:20;;;;;;;3.20;2.30;;;21.00;77.80;;;;;;5035976;28;20536;-92
2023/10/26 22:50:47;;;;;;;3.40;2.93;;;21.10;77.90;;;;;;5036157;28;20603;-93
2023/10/26 22:53:15;;;;;;;3.80;2.80;;;21.00;77.70;;;;;;5035563;28;20442;-93
2023/10/26 22:55:42;;;;;;;2.57;2.37;;;21.00;77.70;;;;;;5035481;28;20466;-91
2023/10/26 22:58:10;;;;;;;3.03;2.73;;;21.00;77.70;;;;;;5035786;28;20503;-92
2023/10/26 23:00:37;;;;;;;3.10;2.90;;;21.00;77.70;;;;;;5035439;28;20476;-92
2023/10/26 23:03:05;;;;;;;2.80;2.60;;;21.10;77.90;;;;;;5035712;28;20449;-92
2023/10/26 23:05:31;;;;;;;3.13;2.83;;;21.00;77.70;;;;;;5035425;28;20781;-92
2023/10/26 23:07:58;;;;;;;3.00;2.70;;;21.00;77.70;;;;;;5035631;28;20449;-93
2023/10/26 23:10:25;;;;;;;3.00;2.80;;;21.00;77.70;;;;;;5035186;28;20446;-92
2023/10/26 23:12:52;;;;;;;3.03;2.73;;;21.10;77.80;;;;;;5035102;28;20537;-93
2023/10/26 23:15:20;;;;;;;2.90;2.70;;;21.00;77.70;;;;;;5035469;28;20430;-91
2023/10/26 23:17:47;;;;;;;2.90;2.50;;;21.00;77.60;;;;;;5035291;28;20538;-94
2023/10/26 23:20:13;;;;;;;3.43;2.73;;;20.90;77.60;;;;;;5035390;28;20445;-93
2023/10/26 23:22:40;;;;;;;2.60;2.40;;;20.90;77.60;;;;;;5035205;28;20499;-93
2023/10/26 23:25:08;;;;;;;3.13;2.87;;;20.90;77.60;;;;;;5035080;28;20817;-94
2023/10/26 23:27:35;;;;;;;3.00;2.70;;;20.90;77.50;;;;;;5035235;28;20533;-94
2023/10/26 23:30:04;;;;;;;2.60;2.40;;;20.90;77.60;;;;;;5034928;28;20477;-93
2023/10/26 23:32:32;;;;;;;2.80;2.60;;;20.90;77.50;;;;;;5035026;28;20507;-91
2023/10/26 23:34:59;;;;;;;2.90;2.70;;;21.00;77.60;;;;;;5035014;28;20438;-92
2023/10/26 23:37:26;;;;;;;2.60;2.40;;;20.90;77.50;;;;;;5034696;28;20453;-93
2023/10/26 23:39:53;;;;;;;2.93;2.73;;;21.00;77.60;;;;;;5035063;28;20449;-91
2023/10/26 23:42:21;;;;;;;3.40;2.77;;;20.90;77.50;;;;;;5034973;28;20584;-91
2023/10/26 23:44:47;;;;;;;3.17;2.40;;;20.90;77.50;;;;;;5034602;28;20453;-93
2023/10/26 23:47:14;;;;;;;2.83;2.63;;;20.90;77.50;;;;;;5034815;28;20450;-93
2023/10/26 23:49:42;;;;;;;3.80;2.40;;;20.90;77.60;;;;;;5034640;28;20512;-92
2023/10/26 23:52:09;;;;;;;2.50;2.30;;;20.90;77.50;;;;;;5034705;28;20534;-92
2023/10/26 23:54:36;;;;;;;3.10;2.60;;;20.90;77.50;;;;;;5034773;28;20537;-93
2023/10/26 23:57:03;;;;;;;6.40;2.73;;;21.00;77.60;;;;;;5034411;28;20453;-93
2023/10/26 23:59:30;;;;;;;2.70;2.50;;;20.90;78.30;;;;;;5034575;28;20454;-93
